createdAt,value
2022-12-18T00:02:21.050Z,6.35
2022-12-18T00:07:24.389Z,5.45
2022-12-18T00:12:29.893Z,4.80
2022-12-18T00:17:33.687Z,5.60
2022-12-18T00:22:37.204Z,5.95
2022-12-18T00:27:40.683Z,5.28
2022-12-18T00:32:44.042Z,5.20
2022-12-18T00:37:47.364Z,5.18
2022-12-18T00:42:50.823Z,5.20
2022-12-18T00:47:54.684Z,5.28
2022-12-18T00:52:58.551Z,5.18
2022-12-18T00:58:02.020Z,4.95
2022-12-18T01:03:06.764Z,4.68
2022-12-18T01:08:10.357Z,5.18
2022-12-18T01:13:13.686Z,5.60
2022-12-18T01:18:18.043Z,5.35
2022-12-18T01:23:21.660Z,4.72
2022-12-18T01:28:25.042Z,4.85
2022-12-18T01:33:29.617Z,4.88
2022-12-18T01:38:33.045Z,4.30
2022-12-18T01:43:48.318Z,4.85
2022-12-18T01:48:59.253Z,4.88
2022-12-18T01:54:04.092Z,4.60
2022-12-18T01:59:11.467Z,4.35
2022-12-18T02:04:27.863Z,4.88
2022-12-18T02:09:52.324Z,4.38
2022-12-18T02:15:01.832Z,4.03
2022-12-18T02:20:20.739Z,4.25
2022-12-18T02:25:42.713Z,3.53
2022-12-18T02:30:50.911Z,3.60
2022-12-18T02:35:56.760Z,4.10
2022-12-18T02:41:04.787Z,3.67
2022-12-18T02:46:35.004Z,3.58
2022-12-18T02:51:51.464Z,3.92
2022-12-18T02:57:04.580Z,3.40
2022-12-18T03:02:22.720Z,3.15
2022-12-18T03:07:39.622Z,3.13
2022-12-18T03:13:04.187Z,2.95
2022-12-18T03:18:21.340Z,3.08
2022-12-18T03:23:30.710Z,3.17
2022-12-18T03:28:40.391Z,2.50
2022-12-18T03:33:56.000Z,2.70
2022-12-18T03:39:06.916Z,2.78
2022-12-18T03:44:29.482Z,2.47
2022-12-18T03:49:57.643Z,2.95
2022-12-18T03:55:02.968Z,2.38
2022-12-18T04:00:14.705Z,2.50
2022-12-18T04:05:34.218Z,2.75
2022-12-18T04:10:38.693Z,2.72
2022-12-18T04:15:42.913Z,2.75
2022-12-18T04:20:50.798Z,2.70
2022-12-18T04:25:55.156Z,3.08
2022-12-18T04:31:13.201Z,2.50
2022-12-18T04:36:16.925Z,3.25
2022-12-18T04:41:22.715Z,2.40
2022-12-18T04:46:30.198Z,3.05
2022-12-18T04:51:33.577Z,3.10
2022-12-18T04:56:36.858Z,3.47
2022-12-18T05:01:40.391Z,3.15
2022-12-18T05:06:43.931Z,3.22
2022-12-18T05:11:47.167Z,3.90
2022-12-18T05:16:50.639Z,3.08
2022-12-18T05:21:54.701Z,3.55
2022-12-18T05:26:58.160Z,3.97
2022-12-18T05:32:01.633Z,4.03
2022-12-18T05:37:05.301Z,3.85
2022-12-18T05:42:08.692Z,3.50
2022-12-18T05:47:12.061Z,3.80
2022-12-18T05:52:16.604Z,3.72
2022-12-18T05:57:20.759Z,3.67
2022-12-18T06:02:24.202Z,3.80
2022-12-18T06:07:27.662Z,3.72
2022-12-18T06:12:30.913Z,3.88
2022-12-18T06:17:36.154Z,4.18
2022-12-18T06:22:39.604Z,4.35
2022-12-18T06:27:42.995Z,3.92
2022-12-18T06:32:50.485Z,3.75
2022-12-18T06:37:56.675Z,4.38
2022-12-18T06:43:00.008Z,4.32
2022-12-18T06:48:03.702Z,4.10
2022-12-18T06:53:07.280Z,3.88
2022-12-18T06:58:11.041Z,4.35
2022-12-18T07:03:15.401Z,3.95
2022-12-18T07:08:19.003Z,4.10
2022-12-18T07:13:22.476Z,4.07
2022-12-18T07:18:25.784Z,3.63
2022-12-18T07:23:30.030Z,3.60
2022-12-18T07:28:34.547Z,4.00
2022-12-18T07:33:38.115Z,3.63
2022-12-18T07:38:41.834Z,3.67
2022-12-18T07:43:45.608Z,3.92
2022-12-18T07:48:50.315Z,4.53
2022-12-18T07:53:59.326Z,4.30
2022-12-18T07:59:09.091Z,3.90
2022-12-18T08:04:13.590Z,4.55
2022-12-18T08:09:17.107Z,4.10
2022-12-18T08:14:20.397Z,4.60
2022-12-18T08:19:23.877Z,4.72
2022-12-18T08:24:27.243Z,4.50
2022-12-18T08:29:30.710Z,4.90
2022-12-18T08:34:34.391Z,4.70
2022-12-18T08:39:37.692Z,3.92
2022-12-18T08:44:41.072Z,3.95
2022-12-18T08:49:44.594Z,4.10
2022-12-18T08:54:47.993Z,4.28
2022-12-18T08:59:51.468Z,4.15
2022-12-18T09:04:57.696Z,4.90
2022-12-18T09:10:01.343Z,4.55
2022-12-18T09:15:06.536Z,4.43
2022-12-18T09:20:10.296Z,4.75
2022-12-18T09:25:13.569Z,4.05
2022-12-18T09:30:17.164Z,4.80
2022-12-18T09:35:20.950Z,4.22
2022-12-18T09:40:30.162Z,4.10
2022-12-18T09:45:44.861Z,3.95
2022-12-18T09:50:50.907Z,4.50
2022-12-18T09:55:54.310Z,3.90
2022-12-18T10:00:57.821Z,3.40
2022-12-18T10:06:22.468Z,4.57
2022-12-18T10:11:34.787Z,3.90
2022-12-18T10:16:44.804Z,3.33
2022-12-18T10:22:04.780Z,3.58
2022-12-18T10:27:16.428Z,3.42
2022-12-18T10:32:26.430Z,3.33
2022-12-18T10:37:31.345Z,3.50
2022-12-18T10:42:36.406Z,3.20
2022-12-18T10:47:50.979Z,3.63
2022-12-18T10:53:02.710Z,3.75
2022-12-18T10:58:26.940Z,3.58
2022-12-18T11:03:40.867Z,4.05
2022-12-18T11:09:02.059Z,3.35
2022-12-18T11:14:22.605Z,2.83
2022-12-18T11:19:38.085Z,3.20
2022-12-18T11:24:41.537Z,2.92
2022-12-18T11:29:46.879Z,2.47
2022-12-18T11:34:59.178Z,2.95
2022-12-18T11:40:12.930Z,3.15
2022-12-18T11:45:29.062Z,3.67
2022-12-18T11:50:38.206Z,3.08
2022-12-18T11:55:45.732Z,4.25
2022-12-18T12:01:10.988Z,4.18
2022-12-18T12:06:30.719Z,4.28
2022-12-18T12:11:47.818Z,3.00
2022-12-18T12:16:56.646Z,3.03
2022-12-18T12:22:19.594Z,3.60
2022-12-18T12:27:35.598Z,3.40
2022-12-18T12:33:13.383Z,3.38
2022-12-18T12:38:29.916Z,2.75
2022-12-18T12:49:16.506Z,2.70
2022-12-18T12:54:26.205Z,2.15
2022-12-18T12:59:32.470Z,2.30
2022-12-18T13:04:55.883Z,2.45
2022-12-18T13:10:27.499Z,2.72
2022-12-18T13:13:43.137Z,3.17
2022-12-18T13:15:46.762Z,2.80
2022-12-18T13:21:03.391Z,3.08
2022-12-18T13:26:07.404Z,2.67
2022-12-18T13:31:11.407Z,3.45
2022-12-18T13:36:24.375Z,3.42
2022-12-18T13:41:28.835Z,4.30
2022-12-18T13:46:51.225Z,4.53
2022-12-18T13:51:56.637Z,4.13
2022-12-18T13:57:01.134Z,5.20
2022-12-18T14:02:13.891Z,6.28
2022-12-18T14:07:20.662Z,6.32
2022-12-18T14:12:27.553Z,7.28
2022-12-18T14:17:33.096Z,7.80
2022-12-18T14:22:37.990Z,8.82
2022-12-18T14:27:53.176Z,8.80
2022-12-18T14:33:09.537Z,10.00
2022-12-18T14:38:19.380Z,11.20
2022-12-18T14:43:23.327Z,12.63
2022-12-18T14:48:42.165Z,14.55
2022-12-18T14:53:52.430Z,15.88
2022-12-18T14:59:01.142Z,16.80
2022-12-18T15:04:06.806Z,17.90
2022-12-18T15:09:27.078Z,18.25
2022-12-18T15:14:41.789Z,18.58
2022-12-18T15:19:48.216Z,19.33
2022-12-18T15:24:52.342Z,20.10
2022-12-18T15:30:08.188Z,20.40
2022-12-18T15:35:19.657Z,21.88
2022-12-18T15:40:25.101Z,22.70
2022-12-18T15:45:29.169Z,18.20
2022-12-18T15:50:32.595Z,17.60
2022-12-18T15:55:36.168Z,19.30
2022-12-18T16:00:41.755Z,18.58
2022-12-18T16:05:47.331Z,15.45
2022-12-18T16:10:51.433Z,15.75
2022-12-18T16:15:55.381Z,14.35
2022-12-18T16:21:00.005Z,13.50
2022-12-18T16:26:03.547Z,12.65
2022-12-18T16:31:09.156Z,12.10
2022-12-18T16:36:13.171Z,13.20
2022-12-18T16:41:21.419Z,13.23
2022-12-18T16:46:24.796Z,12.77
2022-12-18T16:51:29.124Z,10.55
2022-12-18T16:56:32.893Z,10.90
2022-12-18T17:01:36.551Z,7.80
2022-12-18T17:06:45.725Z,4.93
2022-12-18T17:11:49.325Z,4.50
2022-12-18T17:17:19.681Z,5.35
2022-12-18T17:22:17.855Z,4.55
2022-12-18T17:27:23.285Z,4.07
2022-12-18T17:32:27.323Z,3.20
2022-12-18T17:37:30.944Z,3.10
2022-12-18T17:42:34.843Z,2.47
2022-12-18T17:47:41.323Z,2.78
2022-12-18T17:52:47.548Z,2.33
2022-12-18T17:57:51.210Z,3.30
2022-12-18T18:02:54.974Z,2.97
2022-12-18T18:07:58.598Z,3.38
2022-12-18T18:13:01.930Z,2.55
2022-12-18T18:18:05.568Z,2.65
2022-12-18T18:23:08.919Z,2.63
2022-12-18T18:28:12.599Z,2.97
2022-12-18T18:33:16.166Z,2.75
2022-12-18T18:38:19.559Z,2.45
2022-12-18T18:43:23.011Z,3.20
2022-12-18T18:48:28.052Z,2.67
2022-12-18T18:53:41.817Z,2.35
2022-12-18T18:58:45.908Z,2.90
2022-12-18T19:03:49.924Z,2.83
2022-12-18T19:08:55.566Z,2.30
2022-12-18T19:14:00.700Z,2.70
2022-12-18T19:19:04.803Z,2.50
2022-12-18T19:24:10.200Z,3.00
2022-12-18T19:29:14.652Z,3.05
2022-12-18T19:34:18.311Z,2.63
2022-12-18T19:39:25.109Z,2.90
2022-12-18T19:44:28.940Z,3.25
2022-12-18T19:49:33.879Z,2.25
2022-12-18T19:54:40.954Z,2.80
2022-12-18T19:59:44.440Z,2.33
2022-12-18T20:04:49.422Z,3.05
2022-12-18T20:10:01.428Z,2.95
2022-12-18T20:15:08.505Z,3.17
2022-12-18T20:20:11.992Z,3.05
2022-12-18T20:25:17.084Z,3.05
2022-12-18T20:30:21.449Z,2.88
2022-12-18T20:35:24.928Z,3.70
2022-12-18T20:40:30.216Z,3.30
2022-12-18T20:45:33.771Z,3.50
2022-12-18T20:50:38.655Z,2.45
2022-12-18T20:55:44.923Z,3.45
2022-12-18T21:00:48.582Z,3.53
2022-12-18T21:05:52.178Z,3.65
2022-12-18T21:10:56.756Z,2.92
2022-12-18T21:16:02.109Z,3.28
2022-12-18T21:21:06.779Z,3.67
2022-12-18T21:26:23.434Z,3.17
2022-12-18T21:31:29.556Z,3.25
2022-12-18T21:36:34.720Z,3.15
2022-12-18T21:41:42.034Z,3.00
2022-12-18T21:46:51.512Z,3.10
2022-12-18T21:52:00.697Z,3.20
2022-12-18T21:57:08.466Z,2.78
2022-12-18T22:02:20.540Z,3.67
2022-12-18T22:07:24.251Z,2.70
2022-12-18T22:17:30.635Z,3.20
2022-12-18T22:22:33.936Z,3.22
2022-12-18T22:27:37.768Z,4.05
2022-12-18T22:32:41.036Z,3.00
2022-12-18T22:37:44.477Z,3.85
2022-12-18T22:42:47.860Z,3.63
2022-12-18T22:47:54.073Z,3.20
2022-12-18T22:52:57.464Z,3.72
2022-12-18T22:58:00.816Z,3.78
2022-12-18T23:03:04.786Z,3.78
2022-12-18T23:08:10.743Z,3.63
2022-12-18T23:13:14.267Z,3.10
2022-12-18T23:18:17.794Z,2.83
2022-12-18T23:23:21.208Z,4.28
2022-12-18T23:28:25.071Z,3.17
2022-12-18T23:33:30.497Z,3.28
2022-12-18T23:38:34.538Z,3.20
2022-12-18T23:43:38.590Z,3.85
2022-12-18T23:48:42.052Z,3.47
2022-12-18T23:53:45.674Z,3.35
2022-12-18T23:58:49.554Z,3.40
